createdAt,value
2022-10-14T00:01:19.023Z,92.02
2022-10-14T00:03:49.536Z,91.92
2022-10-14T00:06:22.076Z,91.83
2022-10-14T00:08:48.678Z,91.93
2022-10-14T00:11:19.127Z,91.65
2022-10-14T00:13:48.097Z,91.62
2022-10-14T00:16:27.799Z,91.39
2022-10-14T00:18:54.625Z,91.39
2022-10-14T00:21:21.742Z,91.26
2022-10-14T00:23:48.665Z,91.40
2022-10-14T00:26:22.331Z,91.29
2022-10-14T00:28:49.983Z,91.59
2022-10-14T00:31:17.795Z,91.91
2022-10-14T00:33:47.396Z,91.83
2022-10-14T00:36:16.617Z,91.59
2022-10-14T00:38:43.850Z,92.32
2022-10-14T00:41:13.864Z,92.02
2022-10-14T00:44:05.854Z,91.70
2022-10-14T00:46:35.877Z,91.65
2022-10-14T00:49:17.683Z,91.81
2022-10-14T00:51:49.262Z,91.23
2022-10-14T00:54:20.773Z,91.58
2022-10-14T00:56:48.175Z,91.75
2022-10-14T00:59:15.422Z,91.40
2022-10-14T01:01:42.503Z,91.38
2022-10-14T01:04:09.296Z,91.05
2022-10-14T01:06:53.616Z,90.82
2022-10-14T01:09:22.996Z,91.05
2022-10-14T01:12:27.030Z,91.02
2022-10-14T01:15:06.329Z,91.42
2022-10-14T01:18:03.928Z,91.28
2022-10-14T01:20:45.412Z,91.21
2022-10-14T01:23:45.739Z,91.32
2022-10-14T01:26:52.614Z,91.45
2022-10-14T01:29:43.669Z,91.45
2022-10-14T01:32:20.388Z,91.32
2022-10-14T01:35:16.719Z,91.71
2022-10-14T01:37:50.485Z,91.61
2022-10-14T01:40:30.372Z,91.53
2022-10-14T01:43:01.184Z,91.27
2022-10-14T01:45:30.668Z,91.33
2022-10-14T01:47:59.860Z,91.00
2022-10-14T01:50:31.606Z,91.31
2022-10-14T01:53:11.636Z,91.25
2022-10-14T01:55:46.897Z,91.19
2022-10-14T01:58:18.239Z,91.12
2022-10-14T02:00:47.781Z,91.20
2022-10-14T02:03:15.747Z,91.26
2022-10-14T02:06:00.644Z,91.89
2022-10-14T02:08:37.026Z,91.56
2022-10-14T02:11:14.493Z,91.50
2022-10-14T02:14:19.797Z,92.08
2022-10-14T02:17:05.853Z,92.46
2022-10-14T02:19:47.533Z,92.22
2022-10-14T02:22:30.556Z,92.03
2022-10-14T02:25:06.825Z,92.88
2022-10-14T02:27:35.350Z,92.79
2022-10-14T02:30:04.978Z,92.46
2022-10-14T02:32:33.509Z,92.62
2022-10-14T02:35:01.990Z,92.70
2022-10-14T02:37:30.679Z,92.46
2022-10-14T02:40:07.475Z,92.47
2022-10-14T02:42:34.574Z,92.59
2022-10-14T02:45:06.563Z,92.40
2022-10-14T02:47:36.575Z,92.93
2022-10-14T02:50:03.725Z,92.94
2022-10-14T02:52:31.830Z,93.07
2022-10-14T02:54:59.663Z,92.53
2022-10-14T02:57:26.416Z,92.61
2022-10-14T02:59:55.721Z,92.83
2022-10-14T03:02:24.422Z,92.54
2022-10-14T03:04:53.820Z,92.77
2022-10-14T03:07:20.970Z,92.45
2022-10-14T03:09:51.265Z,92.49
2022-10-14T03:12:20.320Z,92.57
2022-10-14T03:14:48.018Z,92.44
2022-10-14T03:17:17.162Z,92.39
2022-10-14T03:19:45.092Z,91.99
2022-10-14T03:22:14.477Z,91.56
2022-10-14T03:24:41.631Z,91.69
2022-10-14T03:27:24.860Z,91.74
2022-10-14T03:29:58.877Z,91.48
2022-10-14T03:32:26.787Z,91.08
2022-10-14T03:35:13.823Z,91.26
2022-10-14T03:37:46.186Z,90.85
2022-10-14T03:40:14.505Z,91.17
2022-10-14T03:42:41.994Z,90.62
2022-10-14T03:45:10.948Z,90.70
2022-10-14T03:47:39.434Z,91.08
2022-10-14T03:50:06.331Z,90.65
2022-10-14T03:52:55.757Z,90.95
2022-10-14T03:55:32.837Z,90.96
2022-10-14T03:57:59.733Z,91.56
2022-10-14T04:00:27.216Z,91.32
2022-10-14T04:03:08.726Z,91.51
2022-10-14T04:05:39.634Z,91.48
2022-10-14T04:08:18.262Z,91.70
2022-10-14T04:10:56.179Z,91.34
2022-10-14T04:13:24.778Z,92.47
2022-10-14T04:15:51.396Z,91.80
2022-10-14T04:18:22.494Z,92.54
2022-10-14T04:20:50.878Z,91.88
2022-10-14T04:23:21.304Z,92.42
2022-10-14T04:25:52.836Z,92.49
2022-10-14T04:28:20.343Z,92.54
2022-10-14T04:30:53.652Z,92.27
2022-10-14T04:33:27.374Z,92.84
2022-10-14T04:36:04.804Z,93.11
2022-10-14T04:38:38.949Z,93.13
2022-10-14T04:41:08.358Z,92.94
2022-10-14T04:43:35.301Z,92.95
2022-10-14T04:46:17.760Z,92.67
2022-10-14T04:48:47.796Z,92.36
2022-10-14T04:51:35.376Z,92.84
2022-10-14T04:54:02.081Z,92.59
2022-10-14T04:56:36.817Z,92.66
2022-10-14T04:59:05.500Z,92.54
2022-10-14T05:01:51.851Z,92.70
2022-10-14T05:04:18.851Z,92.39
2022-10-14T05:06:47.662Z,92.53
2022-10-14T05:09:17.494Z,92.40
2022-10-14T05:11:46.622Z,92.01
2022-10-14T05:14:17.040Z,92.58
2022-10-14T05:16:48.097Z,92.58
2022-10-14T05:19:19.800Z,92.70
2022-10-14T05:21:50.105Z,93.18
2022-10-14T05:24:25.382Z,93.40
2022-10-14T05:26:52.722Z,93.08
2022-10-14T05:29:19.471Z,92.92
2022-10-14T05:31:50.053Z,93.06
2022-10-14T05:34:24.477Z,93.04
2022-10-14T05:36:51.726Z,92.68
2022-10-14T05:39:20.134Z,92.62
2022-10-14T05:41:48.406Z,92.46
2022-10-14T05:44:19.921Z,92.45
2022-10-14T05:46:49.558Z,91.91
2022-10-14T05:49:16.505Z,92.19
2022-10-14T05:51:44.124Z,92.09
2022-10-14T05:54:17.646Z,91.90
2022-10-14T05:56:44.530Z,91.76
2022-10-14T05:59:11.622Z,91.47
2022-10-14T06:01:40.058Z,91.39
2022-10-14T06:04:06.992Z,91.52
2022-10-14T06:06:34.152Z,91.93
2022-10-14T06:09:00.862Z,91.69
2022-10-14T06:11:27.445Z,92.08
2022-10-14T06:13:54.248Z,92.39
2022-10-14T06:16:21.729Z,92.45
2022-10-14T06:18:52.280Z,92.91
2022-10-14T06:21:22.073Z,92.66
2022-10-14T06:23:48.767Z,92.49
2022-10-14T06:26:16.403Z,92.39
2022-10-14T06:28:43.173Z,92.36
2022-10-14T06:31:09.759Z,92.88
2022-10-14T06:33:36.600Z,93.44
2022-10-14T06:36:06.476Z,93.86
2022-10-14T06:38:33.301Z,93.89
2022-10-14T06:40:59.998Z,93.76
2022-10-14T06:43:27.447Z,93.54
2022-10-14T06:45:58.305Z,93.75
2022-10-14T06:48:24.825Z,93.66
2022-10-14T06:50:52.236Z,93.31
2022-10-14T06:53:19.464Z,92.56
2022-10-14T06:55:46.364Z,92.84
2022-10-14T06:58:14.948Z,92.70
2022-10-14T07:00:47.097Z,92.83
2022-10-14T07:03:18.705Z,92.55
2022-10-14T07:05:47.601Z,92.23
2022-10-14T07:08:15.571Z,91.93
2022-10-14T07:10:43.085Z,91.64
2022-10-14T07:13:09.694Z,91.71
2022-10-14T07:15:37.833Z,91.21
2022-10-14T07:18:06.298Z,90.88
2022-10-14T07:20:35.979Z,91.38
2022-10-14T07:23:02.656Z,91.11
2022-10-14T07:25:29.123Z,91.01
2022-10-14T07:27:55.824Z,90.50
2022-10-14T07:30:22.444Z,90.02
2022-10-14T07:32:49.265Z,90.10
2022-10-14T07:35:17.005Z,90.35
2022-10-14T07:37:43.568Z,90.08
2022-10-14T07:40:11.237Z,90.09
2022-10-14T07:42:38.118Z,90.16
2022-10-14T07:45:06.937Z,90.04
2022-10-14T07:47:33.937Z,89.51
2022-10-14T07:50:02.409Z,89.36
2022-10-14T07:52:29.304Z,89.66
2022-10-14T07:54:55.946Z,89.53
2022-10-14T07:57:24.246Z,89.44
2022-10-14T07:59:52.817Z,89.11
2022-10-14T08:02:19.555Z,88.94
2022-10-14T08:04:47.091Z,88.32
2022-10-14T08:07:17.121Z,87.95
2022-10-14T08:09:43.994Z,87.92
2022-10-14T08:12:11.168Z,87.60
2022-10-14T08:14:37.928Z,87.84
2022-10-14T08:17:04.604Z,87.49
2022-10-14T08:19:31.455Z,87.54
2022-10-14T08:21:58.213Z,86.74
2022-10-14T08:24:24.956Z,86.89
2022-10-14T08:26:54.866Z,86.61
2022-10-14T08:29:24.826Z,85.03
2022-10-14T08:31:52.789Z,84.38
2022-10-14T08:34:24.441Z,84.39
2022-10-14T08:36:52.071Z,83.99
2022-10-14T08:39:19.590Z,83.58
2022-10-14T08:42:25.328Z,83.20
2022-10-14T08:44:57.003Z,83.31
2022-10-14T08:47:31.404Z,83.21
2022-10-14T08:50:23.537Z,84.35
2022-10-14T08:53:01.014Z,84.30
2022-10-14T08:55:39.869Z,83.96
2022-10-14T08:58:31.803Z,83.49
2022-10-14T09:01:04.044Z,83.26
2022-10-14T09:03:34.785Z,82.73
2022-10-14T09:06:06.488Z,82.17
2022-10-14T09:08:40.593Z,80.57
2022-10-14T09:11:13.015Z,80.68
2022-10-14T09:13:43.364Z,82.11
2022-10-14T09:16:17.952Z,82.16
2022-10-14T09:18:53.897Z,83.36
2022-10-14T09:21:48.067Z,83.29
2022-10-14T09:24:32.402Z,83.75
2022-10-14T09:27:05.469Z,83.34
2022-10-14T09:29:46.312Z,83.97
2022-10-14T09:32:19.784Z,84.45
2022-10-14T09:34:49.777Z,84.51
2022-10-14T09:37:30.133Z,84.08
2022-10-14T09:40:01.640Z,83.55
2022-10-14T09:42:51.316Z,83.97
2022-10-14T09:45:22.560Z,84.61
2022-10-14T09:47:54.095Z,84.45
2022-10-14T09:50:48.433Z,83.96
2022-10-14T09:53:19.017Z,85.28
2022-10-14T09:55:49.508Z,84.11
2022-10-14T09:58:19.095Z,84.21
2022-10-14T10:00:46.174Z,85.24
2022-10-14T10:03:32.786Z,84.13
2022-10-14T10:06:10.342Z,83.47
2022-10-14T10:08:40.417Z,83.22
2022-10-14T10:11:11.238Z,83.45
2022-10-14T10:13:46.968Z,82.57
2022-10-14T10:16:35.087Z,82.25
2022-10-14T10:19:20.371Z,81.88
2022-10-14T10:21:47.899Z,82.35
2022-10-14T10:24:26.007Z,82.10
2022-10-14T10:26:55.236Z,82.35
2022-10-14T10:29:32.796Z,82.30
2022-10-14T10:32:14.309Z,82.03
2022-10-14T10:35:08.092Z,82.48
2022-10-14T10:37:53.022Z,82.63
2022-10-14T10:40:26.036Z,82.70
2022-10-14T10:43:04.800Z,82.88
2022-10-14T10:46:00.377Z,82.95
2022-10-14T10:48:47.706Z,83.02
2022-10-14T10:51:26.514Z,82.70
2022-10-14T10:54:25.312Z,82.93
2022-10-14T10:56:59.529Z,82.75
2022-10-14T10:59:56.605Z,82.89
2022-10-14T11:02:52.133Z,82.76
2022-10-14T11:05:48.749Z,82.97
2022-10-14T11:08:46.102Z,83.01
2022-10-14T11:11:49.503Z,83.20
2022-10-14T11:14:41.020Z,83.33
2022-10-14T11:20:31.561Z,82.83
2022-10-14T11:23:31.518Z,82.48
2022-10-14T11:26:07.234Z,83.20
2022-10-14T11:29:07.766Z,83.85
2022-10-14T11:31:42.903Z,84.26
2022-10-14T11:34:32.510Z,84.27
2022-10-14T11:37:51.327Z,84.05
2022-10-14T11:40:31.892Z,84.12
2022-10-14T11:43:32.967Z,84.35
2022-10-14T11:46:06.427Z,84.10
2022-10-14T11:49:09.655Z,83.67
2022-10-14T11:51:41.056Z,83.55
2022-10-14T11:54:17.162Z,84.00
2022-10-14T11:57:04.510Z,84.13
2022-10-14T12:00:01.313Z,84.17
2022-10-14T12:02:58.313Z,84.14
2022-10-14T12:05:38.484Z,84.78
2022-10-14T12:08:20.301Z,84.43
2022-10-14T12:10:49.974Z,84.21
2022-10-14T12:13:35.742Z,84.33
2022-10-14T12:16:04.024Z,84.09
2022-10-14T12:18:32.884Z,83.82
2022-10-14T12:21:15.889Z,84.02
2022-10-14T12:23:55.480Z,83.57
2022-10-14T12:26:25.875Z,83.31
2022-10-14T12:28:54.556Z,83.07
2022-10-14T12:31:32.348Z,82.32
2022-10-14T12:34:31.706Z,82.39
2022-10-14T12:36:59.769Z,82.97
2022-10-14T12:39:34.889Z,82.38
2022-10-14T12:42:11.285Z,83.72
2022-10-14T12:44:43.483Z,84.28
2022-10-14T12:47:24.862Z,84.47
2022-10-14T12:49:58.800Z,83.74
2022-10-14T12:52:29.047Z,83.67
2022-10-14T12:55:09.882Z,82.96
2022-10-14T12:57:41.531Z,83.03
2022-10-14T13:00:36.547Z,82.66
2022-10-14T13:03:06.041Z,82.17
2022-10-14T13:05:45.078Z,81.62
2022-10-14T13:08:21.023Z,81.36
2022-10-14T13:11:09.994Z,81.33
2022-10-14T13:13:52.511Z,81.75
2022-10-14T13:16:39.692Z,81.60
2022-10-14T13:19:50.512Z,82.50
2022-10-14T13:22:31.383Z,83.11
2022-10-14T13:25:28.292Z,83.79
2022-10-14T13:28:15.880Z,83.73
2022-10-14T13:30:59.070Z,84.08
2022-10-14T13:33:48.492Z,84.83
2022-10-14T13:36:24.451Z,84.41
2022-10-14T13:38:59.594Z,84.94
2022-10-14T13:41:30.689Z,85.22
2022-10-14T13:44:01.125Z,85.69
2022-10-14T13:46:41.262Z,85.77
2022-10-14T13:51:56.898Z,85.80
2022-10-14T13:54:30.656Z,85.84
2022-10-14T13:57:28.642Z,86.39
2022-10-14T14:02:40.229Z,86.87
2022-10-14T14:05:14.532Z,87.02
2022-10-14T14:10:30.401Z,87.60
2022-10-14T14:12:58.507Z,87.06
2022-10-14T14:15:29.024Z,86.97
2022-10-14T14:17:55.766Z,86.51
2022-10-14T14:20:25.308Z,86.97
2022-10-14T14:22:53.328Z,87.28
2022-10-14T14:25:38.163Z,87.61
2022-10-14T14:28:14.316Z,88.36
2022-10-14T14:30:54.583Z,88.14
2022-10-14T14:33:48.479Z,88.69
2022-10-14T14:36:27.440Z,88.55
2022-10-14T14:39:02.172Z,88.91
2022-10-14T14:41:30.815Z,88.47
2022-10-14T14:44:25.796Z,88.29
2022-10-14T14:46:57.976Z,88.10
2022-10-14T14:49:35.327Z,87.78
2022-10-14T14:52:03.569Z,88.18
2022-10-14T14:54:31.114Z,88.31
2022-10-14T14:57:06.174Z,88.24
2022-10-14T14:59:39.498Z,88.00
2022-10-14T15:02:21.712Z,88.14
2022-10-14T15:05:21.467Z,88.22
2022-10-14T15:07:49.918Z,87.89
2022-10-14T15:10:24.212Z,88.13
2022-10-14T15:12:56.514Z,88.05
2022-10-14T15:15:33.849Z,87.90
2022-10-14T15:18:05.040Z,87.86
2022-10-14T15:20:36.906Z,87.59
2022-10-14T15:23:40.945Z,87.25
2022-10-14T15:26:28.497Z,87.45
2022-10-14T15:29:10.628Z,87.39
2022-10-14T15:31:39.073Z,87.40
2022-10-14T15:34:14.674Z,86.93
2022-10-14T15:36:41.425Z,86.96
2022-10-14T15:39:14.446Z,86.89
2022-10-14T15:41:42.135Z,86.52
2022-10-14T15:44:11.486Z,86.54
2022-10-14T15:46:58.615Z,86.60
2022-10-14T15:49:36.260Z,86.85
2022-10-14T15:52:04.417Z,86.98
2022-10-14T15:54:31.189Z,87.13
2022-10-14T15:56:58.014Z,87.15
2022-10-14T15:59:25.604Z,87.68
2022-10-14T16:01:53.015Z,87.66
2022-10-14T16:04:26.704Z,87.53
2022-10-14T16:06:56.012Z,87.34
2022-10-14T16:09:23.854Z,87.68
2022-10-14T16:11:58.136Z,87.73
2022-10-14T16:14:27.027Z,87.86
2022-10-14T16:16:54.063Z,88.00
2022-10-14T16:19:20.738Z,87.90
2022-10-14T16:21:50.206Z,89.41
2022-10-14T16:24:19.200Z,89.38
2022-10-14T16:26:49.447Z,89.64
2022-10-14T16:29:20.484Z,89.40
2022-10-14T16:31:51.448Z,89.31
2022-10-14T16:34:19.975Z,89.42
2022-10-14T16:36:48.813Z,89.31
2022-10-14T16:39:16.822Z,89.58
2022-10-14T16:41:43.614Z,89.41
2022-10-14T16:44:24.974Z,89.43
2022-10-14T16:47:15.713Z,89.01
2022-10-14T16:49:45.061Z,89.00
2022-10-14T16:52:12.126Z,89.15
2022-10-14T16:54:38.631Z,88.98
2022-10-14T16:57:06.349Z,88.93
2022-10-14T16:59:33.197Z,88.93
2022-10-14T17:02:00.547Z,88.86
2022-10-14T17:04:27.647Z,88.67
2022-10-14T17:07:07.430Z,88.86
2022-10-14T17:09:36.750Z,88.54
2022-10-14T17:12:09.641Z,88.66
2022-10-14T17:14:40.890Z,88.59
2022-10-14T17:17:09.574Z,88.83
2022-10-14T17:19:36.345Z,88.99
2022-10-14T17:22:03.460Z,89.07
2022-10-14T17:24:30.657Z,89.52
2022-10-14T17:26:57.956Z,89.30
2022-10-14T17:29:24.703Z,89.59
2022-10-14T17:31:56.250Z,89.49
2022-10-14T17:34:23.477Z,89.06
2022-10-14T17:36:55.550Z,89.39
2022-10-14T17:39:27.629Z,89.40
2022-10-14T17:41:58.485Z,90.19
2022-10-14T17:44:25.055Z,89.92
2022-10-14T17:46:53.278Z,89.44
2022-10-14T17:49:19.838Z,88.72
2022-10-14T17:51:50.009Z,87.09
2022-10-14T17:54:18.491Z,86.44
2022-10-14T17:56:44.999Z,85.88
2022-10-14T17:59:14.211Z,85.95
2022-10-14T18:02:01.689Z,85.98
2022-10-14T18:04:29.193Z,86.14
2022-10-14T18:06:56.137Z,85.96
2022-10-14T18:09:22.676Z,86.36
2022-10-14T18:14:40.854Z,87.43
2022-10-14T18:17:10.825Z,88.38
2022-10-14T18:19:46.158Z,88.63
2022-10-14T18:22:14.569Z,88.67
2022-10-14T18:24:44.147Z,88.52
2022-10-14T18:27:11.614Z,88.62
2022-10-14T18:29:39.458Z,88.87
2022-10-14T18:32:14.816Z,89.05
2022-10-14T18:34:41.922Z,90.10
2022-10-14T18:37:08.547Z,90.28
2022-10-14T18:39:35.348Z,90.16
2022-10-14T18:42:03.104Z,90.97
2022-10-14T18:44:29.594Z,91.25
2022-10-14T18:46:56.894Z,91.17
2022-10-14T18:49:23.690Z,91.40
2022-10-14T18:51:50.515Z,91.60
2022-10-14T18:54:19.765Z,91.08
2022-10-14T18:56:47.382Z,90.93
2022-10-14T18:59:19.751Z,90.92
2022-10-14T19:01:48.063Z,90.78
2022-10-14T19:04:16.234Z,91.07
2022-10-14T19:06:49.506Z,91.13
2022-10-14T19:09:19.585Z,91.00
2022-10-14T19:11:58.091Z,91.45
2022-10-14T19:14:24.985Z,90.80
2022-10-14T19:16:51.589Z,91.09
2022-10-14T19:19:19.801Z,91.33
2022-10-14T19:21:50.255Z,91.33
2022-10-14T19:24:17.486Z,90.93
2022-10-14T19:26:46.241Z,90.66
2022-10-14T19:29:15.324Z,90.91
2022-10-14T19:31:43.827Z,90.43
2022-10-14T19:34:14.302Z,90.52
2022-10-14T19:36:43.243Z,90.46
2022-10-14T19:39:13.143Z,90.31
2022-10-14T19:41:43.277Z,90.51
2022-10-14T19:44:11.380Z,90.41
2022-10-14T19:46:41.573Z,90.61
2022-10-14T19:49:09.666Z,90.62
2022-10-14T19:51:36.384Z,91.37
2022-10-14T19:54:03.440Z,91.78
2022-10-14T19:56:31.276Z,92.21
2022-10-14T19:58:59.130Z,92.58
2022-10-14T20:01:30.585Z,92.56
2022-10-14T20:03:58.942Z,92.77
2022-10-14T20:06:27.465Z,92.95
2022-10-14T20:08:53.953Z,93.10
2022-10-14T20:11:23.456Z,93.21
2022-10-14T20:13:50.310Z,93.02
2022-10-14T20:16:18.486Z,92.88
2022-10-14T20:18:45.533Z,93.27
2022-10-14T20:21:16.214Z,93.31
2022-10-14T20:23:44.388Z,93.24
2022-10-14T20:26:14.925Z,93.24
2022-10-14T20:28:41.784Z,93.45
2022-10-14T20:31:10.927Z,93.44
2022-10-14T20:33:37.623Z,93.53
2022-10-14T20:36:07.630Z,93.28
2022-10-14T20:38:40.158Z,92.88
2022-10-14T20:41:23.136Z,93.38
2022-10-14T20:43:50.314Z,93.23
2022-10-14T20:46:17.429Z,92.92
2022-10-14T20:48:44.297Z,93.52
2022-10-14T20:51:16.241Z,93.39
2022-10-14T20:53:43.616Z,93.32
2022-10-14T20:56:12.454Z,93.32
2022-10-14T20:58:39.604Z,93.30
2022-10-14T21:01:17.104Z,93.85
2022-10-14T21:03:45.493Z,94.21
2022-10-14T21:06:18.589Z,94.72
2022-10-14T21:08:46.085Z,94.68
2022-10-14T21:11:20.535Z,96.16
2022-10-14T21:13:53.361Z,95.32
2022-10-14T21:16:24.564Z,95.25
2022-10-14T21:19:03.309Z,94.97
2022-10-14T21:21:34.133Z,94.95
2022-10-14T21:24:01.427Z,94.91
2022-10-14T21:26:29.555Z,94.48
2022-10-14T21:28:56.189Z,94.77
2022-10-14T21:31:23.033Z,94.34
2022-10-14T21:34:01.304Z,94.83
2022-10-14T21:36:31.709Z,94.81
2022-10-14T21:39:00.927Z,94.80
2022-10-14T21:41:30.786Z,94.57
2022-10-14T21:43:59.269Z,94.24
2022-10-14T21:46:26.670Z,94.67
2022-10-14T21:48:57.046Z,95.22
2022-10-14T21:51:26.151Z,94.78
2022-10-14T21:53:53.432Z,95.55
2022-10-14T21:56:20.554Z,95.79
2022-10-14T21:58:47.904Z,95.82
2022-10-14T22:01:23.487Z,95.66
2022-10-14T22:03:55.272Z,95.41
2022-10-14T22:06:22.422Z,95.28
2022-10-14T22:08:52.542Z,95.75
2022-10-14T22:11:22.827Z,95.71
2022-10-14T22:13:53.478Z,95.12
2022-10-14T22:16:20.734Z,96.10
2022-10-14T22:18:50.358Z,96.09
2022-10-14T22:21:19.527Z,96.67
2022-10-14T22:23:47.915Z,96.46
2022-10-14T22:26:17.787Z,96.55
2022-10-14T22:28:45.513Z,96.60
2022-10-14T22:31:15.997Z,96.84
2022-10-14T22:33:43.301Z,97.02
2022-10-14T22:36:13.122Z,96.99
2022-10-14T22:38:41.793Z,97.22
2022-10-14T22:41:11.786Z,97.44
2022-10-14T22:43:39.488Z,96.99
2022-10-14T22:46:07.998Z,96.90
2022-10-14T22:48:36.209Z,96.60
2022-10-14T22:51:09.629Z,96.63
2022-10-14T22:53:37.549Z,96.58
2022-10-14T22:56:14.853Z,96.52
2022-10-14T22:58:41.525Z,96.97
2022-10-14T23:01:13.588Z,97.85
2022-10-14T23:03:40.934Z,97.77
2022-10-14T23:06:10.680Z,97.68
2022-10-14T23:08:38.562Z,97.40
2022-10-14T23:11:06.447Z,97.84
2022-10-14T23:13:33.702Z,97.71
2022-10-14T23:16:05.561Z,97.66
2022-10-14T23:18:37.637Z,97.72
2022-10-14T23:21:09.338Z,97.61
2022-10-14T23:23:36.051Z,97.28
2022-10-14T23:26:03.024Z,97.53
2022-10-14T23:28:29.739Z,97.94
2022-10-14T23:30:59.907Z,97.78
2022-10-14T23:33:26.694Z,97.88
2022-10-14T23:35:53.351Z,97.50
2022-10-14T23:38:27.307Z,97.79
2022-10-14T23:40:55.371Z,97.74
2022-10-14T23:43:23.274Z,97.61
2022-10-14T23:45:53.166Z,97.73
2022-10-14T23:48:19.960Z,97.57
2022-10-14T23:50:49.288Z,97.27
2022-10-14T23:53:15.949Z,97.49
2022-10-14T23:55:49.072Z,97.11
2022-10-14T23:58:15.933Z,97.23
